Time;durP1;ratioP1;P1;durP2;ratioP2;P2;SDS_P1;SDS_P2;PMS_P1;PMS_P2;Temp;Humidity;BMP_temperature;BMP_pressure;BME280_temperature;BME280_humidity;BME280_pressure;Samples;Min_cycle;Max_cycle;Signal;HPM_P1;HPM_P2
2022/10/19 00:00:20;;;;;;;8.60;1.00;;;9.70;99.90;;;;;;4950364;28;20036;-84
2022/10/19 00:02:45;;;;;;;13.00;2.03;;;9.70;99.90;;;;;;4915642;29;20104;-85
2022/10/19 00:05:11;;;;;;;8.68;1.20;;;10.10;99.90;;;;;;4915250;29;20035;-85
2022/10/19 00:07:37;;;;;;;9.65;1.45;;;9.70;99.90;;;;;;4945613;28;20046;-84
2022/10/19 00:10:04;;;;;;;7.60;1.40;;;9.80;99.90;;;;;;4934019;29;20496;-85
2022/10/19 00:12:30;;;;;;;5.10;0.98;;;9.70;99.90;;;;;;4950989;28;20043;-84
2022/10/19 00:14:56;;;;;;;7.03;1.17;;;9.70;99.90;;;;;;4949846;29;20098;-85
2022/10/19 00:17:22;;;;;;;12.27;1.25;;;9.70;99.90;;;;;;4923556;29;20055;-84
2022/10/19 00:19:47;;;;;;;13.10;1.10;;;9.70;99.90;;;;;;4920981;29;20126;-84
2022/10/19 00:22:13;;;;;;;8.48;1.20;;;9.70;99.90;;;;;;4920880;29;20036;-84
2022/10/19 00:24:39;;;;;;;3.42;0.93;;;9.60;99.90;;;;;;4957787;28;20032;-84
2022/10/19 00:27:05;;;;;;;10.15;1.67;;;9.60;99.90;;;;;;4944969;29;20091;-85
2022/10/19 00:29:31;;;;;;;10.27;1.00;;;9.70;99.90;;;;;;4955054;28;20046;-85
2022/10/19 00:31:57;;;;;;;8.93;1.40;;;9.70;99.90;;;;;;4936197;29;20071;-84
2022/10/19 00:34:22;;;;;;;5.68;0.98;;;9.60;99.90;;;;;;4927167;29;20496;-84
2022/10/19 00:36:48;;;;;;;3.65;0.60;;;9.60;99.90;;;;;;4936807;29;20051;-85
2022/10/19 00:39:16;;;;;;;4.38;1.10;;;9.60;99.90;;;;;;4944456;29;20110;-84
2022/10/19 00:41:43;;;;;;;8.25;0.90;;;9.50;99.90;;;;;;4900762;29;20036;-84
2022/10/19 00:44:11;;;;;;;2.78;0.80;;;9.70;99.90;;;;;;4924413;29;20050;-85
2022/10/19 00:46:40;;;;;;;6.80;1.60;;;9.60;99.90;;;;;;4949952;28;20095;-84
2022/10/19 00:49:16;;;;;;;10.07;1.15;;;9.50;99.90;;;;;;4931123;29;20031;-84
2022/10/19 00:52:00;;;;;;;;;;;9.60;99.90;;;;;;4937039;29;20040;-84
2022/10/19 00:54:26;;;;;;;7.95;1.25;;;9.60;99.90;;;;;;4933322;28;19926;-85
2022/10/19 00:56:55;;;;;;;6.53;0.80;;;9.60;99.90;;;;;;4947295;28;20039;-84
2022/10/19 00:59:24;;;;;;;13.23;1.40;;;9.60;99.90;;;;;;4934966;29;20090;-84
2022/10/19 01:01:52;;;;;;;5.07;0.98;;;9.60;99.90;;;;;;4931578;29;20091;-85
2022/10/19 01:04:20;;;;;;;7.30;1.58;;;9.60;99.90;;;;;;4925305;29;20047;-85
2022/10/19 01:06:46;;;;;;;5.82;0.68;;;9.70;99.90;;;;;;4925983;29;20036;-85
2022/10/19 01:09:12;;;;;;;5.53;1.08;;;9.60;99.90;;;;;;4949858;28;20055;-84
2022/10/19 01:12:02;;;;;;;6.30;1.13;;;9.70;99.90;;;;;;4923814;29;20429;-84
2022/10/19 01:14:53;;;;;;;8.27;1.17;;;9.70;99.90;;;;;;4913809;29;20046;-84
2022/10/19 01:17:51;;;;;;;8.07;1.20;;;9.80;99.90;;;;;;4928796;29;20044;-85
2022/10/19 01:21:00;;;;;;;10.98;1.08;;;9.80;99.90;;;;;;4925579;29;20043;-85
2022/10/19 01:24:03;;;;;;;10.40;2.10;;;9.90;99.90;;;;;;4899626;29;20163;-85
2022/10/19 01:26:42;;;;;;;7.60;1.42;;;9.80;99.90;;;;;;4943075;29;20036;-85
2022/10/19 01:29:29;;;;;;;10.68;1.30;;;9.90;99.90;;;;;;4933788;29;20040;-85
2022/10/19 01:32:20;;;;;;;7.85;1.10;;;9.90;99.90;;;;;;4950857;29;20130;-84
2022/10/19 01:35:06;;;;;;;8.13;1.80;;;10.00;99.90;;;;;;4917112;29;20052;-84
2022/10/19 01:37:44;;;;;;;;;;;10.00;99.90;;;;;;4911426;29;20044;-84
2022/10/19 01:40:37;;;;;;;9.35;1.08;;;9.90;99.90;;;;;;4928730;29;19961;-84
2022/10/19 01:43:10;;;;;;;7.47;1.05;;;10.00;99.90;;;;;;4927619;29;20044;-85
2022/10/19 01:45:39;;;;;;;8.15;1.92;;;10.00;99.90;;;;;;4916993;29;20079;-84
2022/10/19 01:48:16;;;;;;;9.35;1.20;;;10.40;99.90;;;;;;4910552;29;20039;-84
2022/10/19 01:51:03;;;;;;;8.05;1.35;;;10.10;99.90;;;;;;4911087;29;20099;-86
2022/10/19 01:53:33;;;;;;;11.25;1.42;;;10.10;99.90;;;;;;4881610;29;20075;-84
2022/10/19 01:56:01;;;;;;;4.82;1.02;;;10.10;99.90;;;;;;4929119;29;20054;-84
2022/10/19 01:58:31;;;;;;;11.32;1.52;;;10.90;99.90;;;;;;4921451;29;20039;-84
2022/10/19 02:01:01;;;;;;;10.10;1.05;;;10.70;99.90;;;;;;4916265;29;20044;-84
2022/10/19 02:03:27;;;;;;;7.72;1.13;;;10.10;99.90;;;;;;4894617;29;20446;-85
2022/10/19 02:05:55;;;;;;;8.80;1.50;;;10.10;99.90;;;;;;4903033;29;20032;-84
2022/10/19 02:08:30;;;;;;;7.68;1.60;;;10.20;99.90;;;;;;4909753;29;20119;-84
2022/10/19 02:10:58;;;;;;;5.07;1.13;;;10.10;99.90;;;;;;4897302;29;20115;-85
2022/10/19 02:13:25;;;;;;;7.32;1.15;;;10.10;99.90;;;;;;4927274;29;20489;-84
2022/10/19 02:15:53;;;;;;;7.82;1.23;;;10.20;99.90;;;;;;4906395;29;20044;-85
2022/10/19 02:18:27;;;;;;;11.80;1.50;;;10.10;99.90;;;;;;4916605;29;20051;-84
2022/10/19 02:20:54;;;;;;;11.50;1.90;;;10.10;99.90;;;;;;4878358;29;20036;-84
2022/10/19 02:23:22;;;;;;;6.63;1.08;;;10.10;99.90;;;;;;4936392;29;20122;-84
2022/10/19 02:25:48;;;;;;;6.70;1.58;;;10.10;99.90;;;;;;4907840;29;20412;-84
2022/10/19 02:28:14;;;;;;;7.00;1.23;;;10.10;99.90;;;;;;4886002;29;20032;-84
2022/10/19 02:30:41;;;;;;;10.10;1.35;;;10.20;99.90;;;;;;4898299;29;20845;-84
2022/10/19 02:33:07;;;;;;;13.80;1.98;;;10.10;99.90;;;;;;4916055;29;20500;-84
2022/10/19 02:35:38;;;;;;;6.90;1.10;;;10.10;99.90;;;;;;4895209;29;20082;-84
2022/10/19 02:38:06;;;;;;;7.95;1.52;;;10.10;99.90;;;;;;4920878;29;20126;-85
2022/10/19 02:40:36;;;;;;;7.35;1.80;;;10.20;99.90;;;;;;4948433;28;20062;-85
2022/10/19 02:43:08;;;;;;;7.82;1.10;;;10.10;99.90;;;;;;4949483;28;20040;-85
2022/10/19 02:45:42;;;;;;;9.85;1.35;;;10.20;99.90;;;;;;4926467;29;20044;-85
2022/10/19 02:48:17;;;;;;;3.75;0.90;;;10.20;99.90;;;;;;4897363;29;20035;-84
2022/10/19 02:50:44;;;;;;;5.85;1.02;;;10.20;99.90;;;;;;4912948;29;20044;-84
2022/10/19 02:53:10;;;;;;;10.52;1.42;;;10.20;99.90;;;;;;4931362;29;20035;-84
2022/10/19 02:55:36;;;;;;;10.55;1.13;;;10.20;99.90;;;;;;4921202;29;20047;-84
2022/10/19 02:58:01;;;;;;;4.72;0.80;;;10.20;99.90;;;;;;4903920;29;20035;-84
2022/10/19 03:00:27;;;;;;;7.00;1.38;;;10.30;99.90;;;;;;4934295;29;20039;-84
2022/10/19 03:02:52;;;;;;;7.10;1.40;;;10.10;99.90;;;;;;4951554;29;20047;-84
2022/10/19 03:05:18;;;;;;;8.35;1.85;;;10.10;99.90;;;;;;4920271;29;20036;-84
2022/10/19 03:07:44;;;;;;;6.45;1.00;;;10.30;99.90;;;;;;4940576;29;20503;-84
2022/10/19 03:10:09;;;;;;;9.95;1.38;;;10.00;99.90;;;;;;4926013;29;20106;-84
2022/10/19 03:12:35;;;;;;;8.52;1.75;;;10.00;99.90;;;;;;4949671;29;20042;-84
2022/10/19 03:15:01;;;;;;;5.82;1.15;;;10.00;99.90;;;;;;4928950;29;20039;-85
2022/10/19 03:17:26;;;;;;;10.63;2.05;;;10.80;99.90;;;;;;4920171;29;20047;-84
2022/10/19 03:19:52;;;;;;;6.90;1.55;;;10.00;99.90;;;;;;4955631;28;20067;-85
2022/10/19 03:22:18;;;;;;;4.63;1.15;;;10.10;99.90;;;;;;4916319;29;20416;-84
2022/10/19 03:24:43;;;;;;;12.07;1.55;;;10.00;99.90;;;;;;4902806;29;20047;-85
2022/10/19 03:27:09;;;;;;;10.23;2.22;;;10.00;99.90;;;;;;4926496;29;20183;-86
2022/10/19 03:29:34;;;;;;;11.65;1.27;;;10.00;99.90;;;;;;4939919;28;20038;-85
2022/10/19 03:32:00;;;;;;;9.13;1.23;;;10.00;99.90;;;;;;4911269;29;20488;-84
2022/10/19 03:34:26;;;;;;;2.67;0.65;;;10.00;99.90;;;;;;4941727;29;20452;-84
2022/10/19 03:36:52;;;;;;;5.20;0.95;;;10.00;99.90;;;;;;4952056;28;20047;-84
2022/10/19 03:39:18;;;;;;;9.18;1.10;;;9.90;99.90;;;;;;4938816;29;20567;-84
2022/10/19 03:41:43;;;;;;;10.38;1.77;;;9.90;99.90;;;;;;4950241;29;20102;-84
2022/10/19 03:44:09;;;;;;;6.25;0.93;;;9.90;99.90;;;;;;4918727;29;20047;-85
2022/10/19 03:46:36;;;;;;;7.55;1.02;;;9.90;99.90;;;;;;4935458;29;20078;-84
2022/10/19 03:49:03;;;;;;;6.30;0.88;;;9.80;99.90;;;;;;4916273;29;20035;-84
2022/10/19 03:51:30;;;;;;;4.13;1.13;;;9.80;99.90;;;;;;4927261;29;20032;-85
2022/10/19 03:54:04;;;;;;;9.85;1.70;;;9.80;99.90;;;;;;4915947;29;20039;-85
2022/10/19 03:56:31;;;;;;;4.75;0.90;;;9.80;99.90;;;;;;4916471;29;20043;-85
2022/10/19 03:58:58;;;;;;;11.93;1.50;;;9.70;99.90;;;;;;4896678;29;20051;-86
2022/10/19 04:01:27;;;;;;;7.95;0.82;;;9.80;99.90;;;;;;4902307;29;20083;-84
2022/10/19 04:04:01;;;;;;;6.50;1.13;;;9.70;99.90;;;;;;4936025;29;20046;-85
2022/10/19 04:06:32;;;;;;;6.20;0.80;;;9.70;99.90;;;;;;4917094;29;20062;-84
2022/10/19 04:08:58;;;;;;;3.17;0.75;;;9.80;99.90;;;;;;4901636;29;20032;-84
2022/10/19 04:11:28;;;;;;;10.50;1.52;;;9.80;99.90;;;;;;4933082;29;20043;-84
2022/10/19 04:13:55;;;;;;;9.20;2.53;;;9.80;99.90;;;;;;4931415;29;20103;-85
2022/10/19 04:16:22;;;;;;;8.35;1.55;;;9.70;99.90;;;;;;4930587;29;20044;-85
2022/10/19 04:18:49;;;;;;;9.70;0.98;;;9.70;99.90;;;;;;4931951;29;20043;-85
2022/10/19 04:21:24;;;;;;;6.43;0.90;;;9.70;99.90;;;;;;4926462;29;20042;-84
2022/10/19 04:24:00;;;;;;;8.73;0.90;;;9.80;99.90;;;;;;4947329;28;20468;-87
2022/10/19 04:26:27;;;;;;;10.85;1.45;;;9.80;99.90;;;;;;4921312;29;20048;-85
2022/10/19 04:28:52;;;;;;;7.40;1.33;;;9.80;99.90;;;;;;4929498;28;20039;-85
2022/10/19 04:31:18;;;;;;;7.25;1.00;;;9.70;99.90;;;;;;4951350;29;20036;-85
2022/10/19 04:33:44;;;;;;;5.60;0.80;;;9.70;99.90;;;;;;4916481;29;20699;-85
2022/10/19 04:36:11;;;;;;;7.15;0.80;;;9.70;99.90;;;;;;4936187;29;20090;-84
2022/10/19 04:38:38;;;;;;;6.07;0.77;;;9.70;99.90;;;;;;4941665;29;20074;-84
2022/10/19 04:41:07;;;;;;;11.90;0.93;;;9.60;99.90;;;;;;4952743;28;20071;-85
2022/10/19 04:43:33;;;;;;;10.20;0.70;;;10.10;99.90;;;;;;4927973;29;20079;-85
2022/10/19 04:46:10;;;;;;;7.40;0.85;;;9.50;99.90;;;;;;4961497;28;20126;-85
2022/10/19 04:48:38;;;;;;;6.22;0.90;;;9.50;99.90;;;;;;4955596;28;20067;-84
2022/10/19 04:51:03;;;;;;;25.30;2.00;;;9.50;99.90;;;;;;4918284;29;20114;-85
2022/10/19 04:53:29;;;;;;;5.43;0.70;;;9.50;99.90;;;;;;4927906;29;20176;-84
2022/10/19 04:55:55;;;;;;;5.43;0.98;;;9.40;99.90;;;;;;4957985;28;20050;-85
2022/10/19 04:58:21;;;;;;;13.45;0.80;;;9.40;99.90;;;;;;4939973;29;20133;-84
2022/10/19 05:00:47;;;;;;;15.35;1.13;;;9.30;99.90;;;;;;4944655;28;20028;-84
2022/10/19 05:03:13;;;;;;;8.13;0.50;;;9.30;99.90;;;;;;4942785;28;20055;-85
2022/10/19 05:05:39;;;;;;;14.20;0.70;;;10.00;99.90;;;;;;4940993;29;20043;-84
2022/10/19 05:08:05;;;;;;;9.82;1.58;;;9.20;99.90;;;;;;4925132;29;20467;-84
2022/10/19 05:10:31;;;;;;;11.52;0.75;;;9.20;99.90;;;;;;4956495;28;20043;-85
2022/10/19 05:12:58;;;;;;;9.80;0.70;;;9.20;99.90;;;;;;4922462;29;20061;-84
2022/10/19 05:15:24;;;;;;;7.65;1.23;;;9.10;99.90;;;;;;4950858;28;20500;-84
2022/10/19 05:17:49;;;;;;;8.80;1.00;;;9.30;99.90;;;;;;4955422;28;20095;-84
2022/10/19 05:20:15;;;;;;;7.50;0.70;;;9.10;99.90;;;;;;4946943;28;20043;-84
2022/10/19 05:22:41;;;;;;;7.53;1.00;;;9.00;99.90;;;;;;4934495;29;20059;-84
2022/10/19 05:25:07;;;;;;;7.15;0.88;;;9.00;99.90;;;;;;4934814;29;20040;-85
2022/10/19 05:27:35;;;;;;;5.05;0.88;;;9.00;99.90;;;;;;4918798;29;20044;-85
2022/10/19 05:30:01;;;;;;;7.93;1.15;;;9.00;99.90;;;;;;4957873;28;20027;-84
2022/10/19 05:32:27;;;;;;;7.68;1.40;;;9.00;99.90;;;;;;4924736;29;20520;-85
2022/10/19 05:34:53;;;;;;;5.93;0.70;;;9.00;99.90;;;;;;4949982;29;20132;-85
2022/10/19 05:37:20;;;;;;;11.77;1.55;;;9.00;99.90;;;;;;4949640;28;20040;-85
2022/10/19 05:39:46;;;;;;;7.63;0.88;;;9.00;99.90;;;;;;4960649;28;20043;-84
2022/10/19 05:42:12;;;;;;;13.00;2.25;;;9.00;99.90;;;;;;4920855;29;20039;-85
2022/10/19 05:44:37;;;;;;;7.95;1.20;;;9.00;99.90;;;;;;4936488;29;20047;-84
2022/10/19 05:47:03;;;;;;;9.93;1.25;;;9.10;99.90;;;;;;4931095;29;20058;-85
2022/10/19 05:49:29;;;;;;;8.20;1.42;;;9.10;99.90;;;;;;4934804;29;20040;-86
2022/10/19 05:51:54;;;;;;;11.10;0.60;;;9.20;99.90;;;;;;4934038;29;20048;-85
2022/10/19 05:54:20;;;;;;;5.97;1.10;;;9.20;99.90;;;;;;4909021;29;20046;-85
2022/10/19 05:56:46;;;;;;;9.45;0.93;;;9.20;99.90;;;;;;4944079;29;20066;-84
2022/10/19 05:59:19;;;;;;;14.55;1.20;;;9.30;99.90;;;;;;4937206;29;20106;-84
2022/10/19 06:01:45;;;;;;;11.85;1.75;;;9.30;99.90;;;;;;4929477;29;20106;-85
2022/10/19 06:04:12;;;;;;;8.52;1.50;;;9.40;99.90;;;;;;4954779;28;20097;-84
2022/10/19 06:06:38;;;;;;;4.75;0.70;;;9.40;99.90;;;;;;4923115;29;20035;-85
2022/10/19 06:09:04;;;;;;;10.13;1.77;;;9.40;99.90;;;;;;4917965;29;20048;-85
2022/10/19 06:11:33;;;;;;;9.18;1.23;;;9.90;99.90;;;;;;4911628;29;20091;-85
2022/10/19 06:14:01;;;;;;;16.27;1.25;;;9.80;99.90;;;;;;4936911;29;20038;-85
2022/10/19 06:16:28;;;;;;;12.68;1.20;;;9.50;99.90;;;;;;4954552;28;20082;-84
2022/10/19 06:18:54;;;;;;;10.77;0.95;;;9.50;99.90;;;;;;4960048;28;20059;-84
2022/10/19 06:21:27;;;;;;;8.52;1.42;;;9.50;99.90;;;;;;4930128;29;20088;-86
2022/10/19 06:23:55;;;;;;;9.65;0.90;;;9.50;99.90;;;;;;4940188;29;20699;-84
2022/10/19 06:26:22;;;;;;;6.60;1.48;;;9.60;99.90;;;;;;4943904;28;20451;-85
2022/10/19 06:28:49;;;;;;;11.93;0.95;;;9.60;99.90;;;;;;4948812;28;20047;-86
2022/10/19 06:31:15;;;;;;;11.02;1.30;;;9.60;99.90;;;;;;4931617;29;20087;-86
2022/10/19 06:33:43;;;;;;;10.00;1.30;;;9.60;99.90;;;;;;4945156;28;20047;-84
2022/10/19 06:36:14;;;;;;;7.07;0.80;;;9.70;99.90;;;;;;4925745;29;20047;-85
2022/10/19 06:38:41;;;;;;;9.75;0.90;;;9.80;99.90;;;;;;4943766;28;20393;-86
2022/10/19 06:41:07;;;;;;;8.10;1.42;;;9.70;99.90;;;;;;4947883;28;20067;-83
2022/10/19 06:43:42;;;;;;;5.72;0.68;;;9.80;99.90;;;;;;4949571;28;20058;-84
2022/10/19 06:46:16;;;;;;;14.02;1.13;;;9.70;99.90;;;;;;4930321;29;20127;-85
2022/10/19 06:52:26;;;;;;;6.82;1.10;;;9.80;99.90;;;;;;4932545;29;20049;-85
2022/10/19 06:54:51;;;;;;;6.63;1.15;;;9.80;99.90;;;;;;4934465;29;20492;-91
2022/10/19 06:57:17;;;;;;;7.55;1.25;;;9.80;99.90;;;;;;4929368;29;20440;-85
2022/10/19 06:59:43;;;;;;;6.88;1.13;;;9.90;99.90;;;;;;4942870;29;20058;-84
2022/10/19 07:02:10;;;;;;;6.43;1.05;;;9.90;99.90;;;;;;4914520;29;20040;-84
2022/10/19 07:04:36;;;;;;;8.73;1.23;;;10.00;99.90;;;;;;4936978;29;20110;-84
2022/10/19 07:07:02;;;;;;;8.38;1.30;;;10.00;99.90;;;;;;4919857;29;20298;-85
2022/10/19 07:09:28;;;;;;;10.75;1.45;;;10.00;99.90;;;;;;4913835;29;20036;-85
2022/10/19 07:11:54;;;;;;;7.45;0.77;;;10.10;99.90;;;;;;4943635;29;20415;-84
2022/10/19 07:14:23;;;;;;;7.93;1.08;;;10.10;99.90;;;;;;4944863;28;20047;-85
2022/10/19 07:16:49;;;;;;;8.88;1.73;;;10.10;99.90;;;;;;4904280;29;20044;-85
2022/10/19 07:19:15;;;;;;;9.02;1.17;;;10.20;99.90;;;;;;4897485;29;20038;-85
2022/10/19 07:21:42;;;;;;;12.23;1.13;;;10.30;99.90;;;;;;4921739;29;20649;-85
2022/10/19 07:24:08;;;;;;;10.57;1.48;;;10.40;99.90;;;;;;4932519;29;20090;-85
2022/10/19 07:26:34;;;;;;;6.68;1.00;;;10.50;99.90;;;;;;4933486;29;20123;-85
2022/10/19 07:29:00;;;;;;;14.27;1.77;;;10.40;99.90;;;;;;4915042;29;20050;-84
2022/10/19 07:31:27;;;;;;;12.02;2.65;;;10.60;99.90;;;;;;4917829;29;20452;-84
2022/10/19 07:33:55;;;;;;;8.00;0.90;;;10.60;99.90;;;;;;4955073;28;20043;-84
2022/10/19 07:36:21;;;;;;;7.68;1.50;;;10.70;99.90;;;;;;4949057;28;20055;-85
2022/10/19 07:38:47;;;;;;;10.65;1.33;;;10.80;99.90;;;;;;4946689;28;20043;-85
2022/10/19 07:41:15;;;;;;;10.27;1.25;;;10.90;99.90;;;;;;4930821;29;20550;-85
2022/10/19 07:43:42;;;;;;;8.18;1.13;;;10.90;99.90;;;;;;4934066;29;20054;-84
2022/10/19 07:46:12;;;;;;;12.05;1.40;;;11.00;99.90;;;;;;4920077;29;20400;-84
2022/10/19 07:48:37;;;;;;;8.82;0.93;;;11.00;99.90;;;;;;4929433;29;20127;-85
2022/10/19 07:51:07;;;;;;;10.32;1.75;;;11.10;99.90;;;;;;4938214;29;20128;-85
2022/10/19 07:53:33;;;;;;;8.50;1.13;;;11.10;99.90;;;;;;4943060;29;20139;-85
2022/10/19 07:56:20;;;;;;;11.35;1.63;;;11.20;99.90;;;;;;4941094;29;20043;-85
2022/10/19 07:58:45;;;;;;;13.55;2.22;;;11.60;99.90;;;;;;4956390;28;20118;-85
2022/10/19 08:01:16;;;;;;;11.13;1.10;;;11.30;99.90;;;;;;4952095;28;20563;-85
2022/10/19 08:03:43;;;;;;;11.27;1.25;;;11.40;99.90;;;;;;4936420;29;20048;-85
2022/10/19 08:06:11;;;;;;;10.52;1.50;;;11.40;99.90;;;;;;4947660;28;20047;-86
2022/10/19 08:08:37;;;;;;;10.07;1.42;;;11.50;99.90;;;;;;4918842;29;20047;-84
2022/10/19 08:11:11;;;;;;;11.18;1.42;;;11.70;99.90;;;;;;4918671;29;20514;-84
2022/10/19 08:13:37;;;;;;;16.55;1.23;;;11.60;99.90;;;;;;4939147;29;20095;-85
2022/10/19 08:16:03;;;;;;;8.32;1.17;;;11.70;99.90;;;;;;4936818;28;20049;-85
2022/10/19 08:18:48;;;;;;;6.32;0.88;;;12.30;99.90;;;;;;4946886;28;20036;-84
2022/10/19 08:21:14;;;;;;;8.38;1.25;;;11.80;99.90;;;;;;4896816;29;20040;-85
2022/10/19 08:23:46;;;;;;;10.43;1.05;;;11.80;99.90;;;;;;4919937;29;20119;-86
2022/10/19 08:26:12;;;;;;;8.63;0.93;;;11.80;99.90;;;;;;4960880;28;20500;-85
2022/10/19 08:28:37;;;;;;;11.73;1.45;;;11.90;99.90;;;;;;4936283;29;20036;-85
2022/10/19 08:31:16;;;;;;;7.15;0.88;;;11.90;99.90;;;;;;4960597;28;20043;-84
2022/10/19 08:33:42;;;;;;;12.32;1.88;;;12.00;99.90;;;;;;4949190;28;20561;-84
2022/10/19 08:36:10;;;;;;;12.90;1.88;;;12.10;99.90;;;;;;4931612;29;20071;-85
2022/10/19 08:38:36;;;;;;;9.05;1.23;;;12.10;99.90;;;;;;4932388;29;20114;-84
2022/10/19 08:41:16;;;;;;;7.18;0.95;;;12.10;99.90;;;;;;4936879;29;20078;-85
2022/10/19 08:44:00;;;;;;;6.93;1.17;;;12.10;99.90;;;;;;4924443;29;20071;-85
2022/10/19 08:46:29;;;;;;;7.25;1.00;;;12.20;99.90;;;;;;4918830;29;20059;-85
2022/10/19 08:48:55;;;;;;;9.98;2.13;;;12.20;99.90;;;;;;4939343;29;20051;-84
2022/10/19 08:51:20;;;;;;;5.80;0.73;;;12.20;99.90;;;;;;4957884;28;20043;-85
2022/10/19 08:53:56;;;;;;;12.18;1.73;;;12.30;99.90;;;;;;4904357;29;20091;-85
2022/10/19 08:56:21;;;;;;;10.48;1.70;;;12.20;99.90;;;;;;4915175;29;20067;-85
2022/10/19 08:59:09;;;;;;;8.95;1.00;;;12.30;99.90;;;;;;4916755;29;20055;-85
2022/10/19 09:02:01;;;;;;;6.68;1.13;;;12.40;99.90;;;;;;4935978;29;20071;-87
2022/10/19 09:04:31;;;;;;;12.45;1.70;;;12.40;99.90;;;;;;4920825;29;20043;-84
2022/10/19 09:07:21;;;;;;;8.80;0.90;;;12.40;99.90;;;;;;4917789;29;20400;-85
2022/10/19 09:10:31;;;;;;;12.80;1.63;;;12.40;99.90;;;;;;4947770;28;20131;-85
2022/10/19 09:13:04;;;;;;;7.05;0.80;;;12.40;99.90;;;;;;4933705;29;20170;-85
2022/10/19 09:15:40;;;;;;;9.25;1.25;;;12.50;99.90;;;;;;4952761;28;20122;-84
2022/10/19 09:18:27;;;;;;;7.53;1.02;;;12.50;99.90;;;;;;4925642;29;20047;-86
2022/10/19 09:21:06;;;;;;;10.20;1.05;;;12.40;99.90;;;;;;4928820;29;20047;-84
2022/10/19 09:23:40;;;;;;;7.85;1.38;;;12.50;99.90;;;;;;4949191;28;20131;-85
2022/10/19 09:26:17;;;;;;;8.02;0.98;;;12.50;99.90;;;;;;4951809;28;20094;-84
2022/10/19 09:29:02;;;;;;;7.10;1.35;;;12.50;99.90;;;;;;4936092;29;20408;-85
2022/10/19 09:31:35;;;;;;;6.80;1.58;;;12.50;99.90;;;;;;4904008;29;20042;-85
2022/10/19 09:34:26;;;;;;;17.58;2.10;;;12.20;99.90;;;;;;4946248;29;20035;-87
2022/10/19 09:36:56;;;;;;;6.95;0.98;;;12.40;99.90;;;;;;4898403;29;20060;-85
2022/10/19 09:39:23;;;;;;;7.50;1.05;;;12.40;99.90;;;;;;4900218;29;20441;-84
2022/10/19 09:42:03;;;;;;;6.30;0.90;;;12.50;99.90;;;;;;4914618;29;20040;-84
2022/10/19 09:44:29;;;;;;;5.35;0.70;;;12.90;99.90;;;;;;4923169;29;20049;-84
2022/10/19 09:47:04;;;;;;;8.35;1.10;;;12.40;99.90;;;;;;4936525;29;20043;-85
2022/10/19 09:49:48;;;;;;;8.77;1.50;;;12.60;99.90;;;;;;4918716;29;20044;-84
2022/10/19 09:52:37;;;;;;;13.77;1.80;;;12.60;99.90;;;;;;4915094;29;20565;-86
2022/10/19 09:55:21;;;;;;;10.32;1.20;;;12.70;99.90;;;;;;4909932;29;20123;-85
2022/10/19 09:57:50;;;;;;;7.20;1.15;;;12.70;99.90;;;;;;4906784;29;20120;-85
2022/10/19 10:00:21;;;;;;;10.18;1.05;;;12.70;99.90;;;;;;4921362;29;20044;-85
2022/10/19 10:02:54;;;;;;;10.07;1.15;;;12.80;99.90;;;;;;4957296;28;20043;-85
2022/10/19 10:05:29;;;;;;;7.05;1.30;;;13.00;99.90;;;;;;4954185;28;20074;-85
2022/10/19 10:07:55;;;;;;;8.73;1.45;;;12.90;99.90;;;;;;4935026;29;20391;-85
2022/10/19 10:10:34;;;;;;;8.77;1.10;;;12.80;99.90;;;;;;4948541;28;20040;-85
2022/10/19 10:13:01;;;;;;;7.47;0.80;;;12.80;99.90;;;;;;4917013;29;20047;-85
2022/10/19 10:15:35;;;;;;;10.13;1.10;;;12.80;99.90;;;;;;4948758;28;20568;-86
2022/10/19 10:18:01;;;;;;;6.57;0.95;;;12.80;99.90;;;;;;4936558;29;20074;-86
2022/10/19 10:20:31;;;;;;;7.75;1.20;;;12.80;99.90;;;;;;4946481;28;20043;-85
2022/10/19 10:23:02;;;;;;;8.45;1.13;;;12.80;99.90;;;;;;4958002;28;20036;-85
2022/10/19 10:25:31;;;;;;;13.20;1.23;;;12.80;99.90;;;;;;4925588;29;20491;-85
2022/10/19 10:28:03;;;;;;;9.48;1.35;;;12.90;99.90;;;;;;4945650;28;20032;-85
2022/10/19 10:30:33;;;;;;;8.55;0.90;;;12.80;99.90;;;;;;4920433;29;20050;-85
2022/10/19 10:32:59;;;;;;;8.50;1.48;;;12.80;99.90;;;;;;4919095;29;20567;-85
2022/10/19 10:35:32;;;;;;;6.75;0.77;;;13.00;99.90;;;;;;4956931;28;20044;-86
2022/10/19 10:38:13;;;;;;;9.77;1.13;;;13.50;99.90;;;;;;4941674;29;20063;-85
2022/10/19 10:40:40;;;;;;;6.55;1.45;;;12.90;99.90;;;;;;4944409;29;20044;-85
2022/10/19 10:43:11;;;;;;;9.20;1.13;;;12.90;99.90;;;;;;4934369;29;20043;-86
2022/10/19 10:45:47;;;;;;;7.60;1.27;;;12.90;99.90;;;;;;4930043;29;20139;-85
2022/10/19 10:48:34;;;;;;;6.15;0.82;;;12.90;99.90;;;;;;4943311;28;20040;-85
2022/10/19 10:51:01;;;;;;;7.63;0.82;;;12.90;99.90;;;;;;4915039;29;20039;-85
2022/10/19 10:53:47;;;;;;;7.55;1.08;;;13.10;99.90;;;;;;4934178;29;20039;-86
2022/10/19 10:56:27;;;;;;;5.90;1.27;;;13.00;99.90;;;;;;4926714;29;20491;-85
2022/10/19 10:58:58;;;;;;;10.93;0.98;;;13.00;99.90;;;;;;4940200;29;20522;-85
2022/10/19 11:01:34;;;;;;;6.50;0.70;;;13.10;99.90;;;;;;4942200;28;20114;-85
2022/10/19 11:04:09;;;;;;;3.85;0.88;;;13.20;99.90;;;;;;4936354;29;20043;-85
2022/10/19 11:06:45;;;;;;;9.20;1.10;;;13.20;99.90;;;;;;4925842;29;20493;-85
2022/10/19 11:09:18;;;;;;;5.07;0.75;;;13.40;99.90;;;;;;4930839;29;20114;-85
2022/10/19 11:11:49;;;;;;;7.90;1.15;;;14.00;99.90;;;;;;4909292;29;20047;-85
2022/10/19 11:14:39;;;;;;;6.15;0.88;;;13.50;99.90;;;;;;4938303;29;20098;-86
2022/10/19 11:17:12;;;;;;;8.52;0.80;;;13.30;99.90;;;;;;4936472;29;20106;-86
2022/10/19 11:19:44;;;;;;;6.13;1.27;;;13.30;99.90;;;;;;4909318;29;20052;-85
2022/10/19 11:22:34;;;;;;;7.13;0.98;;;13.30;99.90;;;;;;4936265;29;20036;-85
2022/10/19 11:25:20;;;;;;;8.57;1.25;;;13.20;99.90;;;;;;4933257;29;20048;-86
2022/10/19 11:28:07;;;;;;;4.97;0.43;;;13.20;99.90;;;;;;4933352;29;21276;-85
2022/10/19 11:30:46;;;;;;;14.18;1.13;;;13.20;99.90;;;;;;4911981;29;20074;-85
2022/10/19 11:33:14;;;;;;;6.43;0.70;;;13.20;99.90;;;;;;4932104;29;20043;-86
2022/10/19 11:35:42;;;;;;;6.82;0.93;;;13.10;99.90;;;;;;4919339;29;20535;-85
2022/10/19 11:38:23;;;;;;;6.78;0.93;;;13.00;99.90;;;;;;4916079;29;20047;-85
2022/10/19 11:41:03;;;;;;;6.60;0.70;;;13.00;99.90;;;;;;4942587;29;20477;-86
2022/10/19 11:43:33;;;;;;;6.75;1.30;;;13.10;99.90;;;;;;4950069;28;20408;-85
2022/10/19 11:46:32;;;;;;;7.38;1.02;;;13.10;99.90;;;;;;4952672;28;20035;-84
2022/10/19 11:49:30;;;;;;;6.43;0.93;;;13.10;99.90;;;;;;4947828;28;20127;-86
2022/10/19 11:52:30;;;;;;;7.75;0.93;;;13.10;99.90;;;;;;4929813;29;20087;-85
2022/10/19 11:55:16;;;;;;;6.75;1.10;;;13.10;99.90;;;;;;4953455;29;20483;-85
2022/10/19 11:58:17;;;;;;;9.15;0.90;;;13.10;99.90;;;;;;4922521;29;20062;-85
2022/10/19 12:01:26;;;;;;;7.60;1.17;;;13.10;99.90;;;;;;4911483;29;20518;-85
2022/10/19 12:04:23;;;;;;;5.78;0.75;;;13.10;99.90;;;;;;4936035;29;20084;-85
2022/10/19 12:07:03;;;;;;;9.60;1.00;;;13.00;99.90;;;;;;4941949;29;20048;-85
2022/10/19 12:09:34;;;;;;;6.40;0.90;;;12.90;99.90;;;;;;4933938;29;20032;-86
2022/10/19 12:12:26;;;;;;;7.10;0.90;;;12.90;99.90;;;;;;4939054;29;20059;-86
2022/10/19 12:14:59;;;;;;;6.05;1.02;;;12.90;99.90;;;;;;4916894;29;20052;-88
2022/10/19 12:17:32;;;;;;;10.35;1.30;;;13.00;99.90;;;;;;4936257;29;20154;-85
2022/10/19 12:20:07;;;;;;;8.35;0.80;;;12.90;99.90;;;;;;4939971;29;20042;-86
2022/10/19 12:22:36;;;;;;;9.15;1.33;;;13.00;99.90;;;;;;4935710;29;20115;-85
2022/10/19 12:25:02;;;;;;;7.18;0.90;;;13.00;99.90;;;;;;4922159;29;20188;-86
2022/10/19 12:27:37;;;;;;;8.38;1.05;;;13.20;99.90;;;;;;4927890;29;20040;-86
2022/10/19 12:30:07;;;;;;;5.88;0.82;;;13.60;99.90;;;;;;4957558;28;20531;-85
2022/10/19 12:32:52;;;;;;;9.05;1.70;;;13.80;99.90;;;;;;4938264;29;20130;-85
2022/10/19 12:36:11;;;;;;;7.97;1.50;;;13.90;99.90;;;;;;4950685;28;20115;-85
2022/10/19 12:38:53;;;;;;;6.80;1.25;;;13.90;99.90;;;;;;4888554;29;20103;-85
2022/10/19 12:42:09;;;;;;;7.97;1.70;;;13.70;99.90;;;;;;4901551;29;20080;-86
2022/10/19 12:44:53;;;;;;;8.00;1.40;;;13.60;99.90;;;;;;4929981;29;20500;-85
2022/10/19 12:47:22;;;;;;;4.75;0.68;;;13.40;99.90;;;;;;4937670;29;20034;-87
2022/10/19 12:49:54;;;;;;;2.55;0.50;;;13.20;99.90;;;;;;4939393;28;20047;-85
2022/10/19 12:52:55;;;;;;;7.35;0.80;;;13.10;99.90;;;;;;4919182;29;20048;-85
2022/10/19 12:55:21;;;;;;;2.97;0.40;;;13.10;99.90;;;;;;4882757;29;20040;-85
2022/10/19 12:57:54;;;;;;;7.47;1.33;;;13.10;99.90;;;;;;4922031;29;20055;-85
2022/10/19 13:00:27;;;;;;;8.77;0.60;;;13.10;99.90;;;;;;4950804;28;20175;-85
2022/10/19 13:03:12;;;;;;;9.20;1.08;;;13.30;99.90;;;;;;4960848;28;20047;-85
2022/10/19 13:05:38;;;;;;;6.78;0.60;;;13.60;99.90;;;;;;4955689;28;20054;-86
2022/10/19 13:08:05;;;;;;;6.93;0.50;;;14.60;99.90;;;;;;4948856;28;20063;-86
2022/10/19 13:10:32;;;;;;;5.20;0.70;;;14.00;99.90;;;;;;4937475;29;20118;-85
2022/10/19 13:12:58;;;;;;;9.07;1.08;;;14.10;99.90;;;;;;4954106;28;20035;-84
2022/10/19 13:15:32;;;;;;;4.28;0.77;;;14.10;99.90;;;;;;4934762;29;20393;-85